Jacks Valley, Nevada
Current Conditions -  °F | °C
As of 12:55 AM on Sunday 26 Oct 2014 (Local Time) from KCXP Reporting Station
Few Clouds Few Clouds  
Wind Chill: 50°   Ceiling: Unl
Heat Index: 50°   Visibility: 10mi
Dew Point: 21°   Wind: 7mph
Humidity: 32%   Direction: 230°SW
Pressure: 30.09"   Gusts: 16mph
Location:  39.1386°N, 119.659°W
Report Text: KCXP 260755Z AUTO 23006G14KT 200V280 10SM FEW060 10/M06 A3009 RMK AO2
Loading
Personal Weather Stations






























Interactive Weather Map
Tropical Storm Tracking
New forecast layout! Learn more

10-Day Weather Forecast

Advertisements
Track Severe Weather on mobile